Share

Reads Landing, MN (55968)

Rics Igloo7 (KMNLAKEC3) Elev 733 ft | 44.47 °N, 92.31 °W | Change Station

Current weather conditions updated 2 seconds ago

Rain
Rain
53.7 °F
Feels Like 53.7 °F
N
0.0
Wind Variable Wind from NNE
Gusts 4.0 mph
Sunrise 6:14 AM
Sunset 8:00 PM
Moon Waning Gibbous

Today is forecast to be nearly the same temperature as yesterday. Morning thunderstorms.

Pressure 29.90 in
Visibility 3.0 miles
Clouds Scattered Clouds 2500 ft
Mostly Cloudy 6000 ft
Overcast 9000 ft
Dew Point 53 °F
Humidity 97%
Rainfall 0.00 in
Snow Depth Not available.
UV 0 out of 16
Pollen 8.30 out of 12
Air Quality Not available.
Flu Activity Sporadic
METAR KRGK 210935Z AUTO 20006KT 3SM RA SCT025 BKN060 OVC090 12/11 A2990 RMK AO2 P0002 LTG DSNT SW AND W

More Conditions Fewer Conditions

Pressure 29.90 in
Visibility 3.0 miles
Clouds Scattered Clouds 2500 ft
Mostly Cloudy 6000 ft
Overcast 9000 ft
Dew Point 53 °F
Humidity 97%
Rainfall 0.00 in
Snow Depth Not available.
UV 0 out of 16
Pollen 8.30 out of 12
Air Quality Not available.
Flu Activity Sporadic
METAR KRGK 210935Z AUTO 20006KT 3SM RA SCT025 BKN060 OVC090 12/11 A2990 RMK AO2 P0002 LTG DSNT SW AND W

More Conditions Fewer Conditions

10-Day Weather Forecast

Almanac

Astronomy

Apr. 21, 2014 Rise Set
Actual Time 6:14 AM CDT 8:00 PM CDT
Civil Twilight 5:43 AM CDT 8:31 PM CDT
Nautical Twilight 5:06 AM CDT 9:09 PM CDT
Astronomical Twilight 4:25 AM CDT 9:49 PM CDT
Moon 1:33 AM CDT 11:38 AM CDT
Length of Visible Light 14h 47m
Length of Day
13h 45m
Tomorrow will be 2m 52s longer.
Waning Gibbous, 60% of the Moon is Illuminated
Today
Waning Gibbous
Apr 22
Last Quarter
Apr 29
New
May 6
First Quarter
May 14
Full

Today's Extremes

State Highs State Lows

Community

  • Snowy Robin
    Snowy Robin
  • Sun Pillar and Geese
    Sun Pillar and Geese
  • Showers on the Way
    Showers on the Way
  • Easter Morning Fog
    Easter Morning Fog
  • Easter Dance
    Easter Dance

WunderPhotos

Upload Photos

1,703,579 photos uploaded!

WunderBlogs® & News

Nearby

Snow Depth

Station Depth Elevation
No new snow has been reported.

Coastal Water Temperatures

Place Temperature
No Stations Reporting

Earthquake Activity

City Distance Mag. Time & Date
No recent earthquake activity has been reported nearby.
Minimum magnitude displayed is 2.5.

Nearby Weather Stations

Station Location Temp. Dew Point Humidity Wind Precip. Elev Updated Type
Rics Igloo7, Lake City, MN 53.7 °F 53 °F 97% NNE  at  0.0 mph 0.00 in / hr 733 ft 4:48 AM CDT Rapid Fire
SIGHT-SEA-ER II, Lake City, MN 53.6 °F 53 °F 97% NNE  at  2.0 mph 0.00 in / hr 728 ft 4:41 AM CDT Normal
SE Minn, Lake City, MN 59.4 °F 56 °F 87% West  at  19.0 mph 0.01 in / hr 1000 ft 4:47 AM CDT Rapid Fire
Minnesota, Altura, MN 57.4 °F 53 °F 86% NW  at  0.7 mph 0.00 in / hr 1165 ft 4:48 AM CDT Rapid Fire

Show More Stations Show Fewer Stations

What do you think?

We're not finished. Please let us know what you like, what you don't like, and what you are still missing.